Time;durP1;ratioP1;P1;durP2;ratioP2;P2;SDS_P1;SDS_P2;PMS_P1;PMS_P2;Temp;Humidity;BMP_temperature;BMP_pressure;BME280_temperature;BME280_humidity;BME280_pressure;Samples;Min_cycle;Max_cycle;Signal;HPM_P1;HPM_P2
2023/05/01 00:00:49;;;;;;;0.20;0.20;;;7.70;99.90;;;;;;5042090;28;20484;-82
2023/05/01 00:03:16;;;;;;;0.20;0.20;;;7.70;99.90;;;;;;5066166;28;21535;-81
2023/05/01 00:05:43;;;;;;;0.20;0.20;;;7.80;99.90;;;;;;5041542;28;20206;-82
2023/05/01 00:08:08;;;;;;;0.20;0.20;;;7.80;99.90;;;;;;5038793;28;20443;-82
2023/05/01 00:10:35;;;;;;;0.20;0.20;;;7.70;99.90;;;;;;5051079;28;20449;-81
2023/05/01 00:13:01;;;;;;;0.27;0.27;;;7.70;99.90;;;;;;5039954;28;20257;-83
2023/05/01 00:15:26;;;;;;;0.20;0.20;;;7.70;99.90;;;;;;5032934;28;20559;-82
2023/05/01 00:17:52;;;;;;;0.30;0.30;;;7.70;99.90;;;;;;5053803;28;20629;-81
2023/05/01 00:20:18;;;;;;;0.23;0.23;;;7.70;99.90;;;;;;5039445;28;20203;-82
2023/05/01 00:22:43;;;;;;;0.20;0.20;;;7.50;99.90;;;;;;5038785;28;20456;-83
2023/05/01 00:25:09;;;;;;;0.20;0.20;;;7.60;99.90;;;;;;5040335;28;20221;-82
2023/05/01 00:27:35;;;;;;;0.20;0.20;;;7.60;99.90;;;;;;5050882;28;20348;-82
2023/05/01 00:30:00;;;;;;;0.20;0.20;;;7.50;99.90;;;;;;5049623;28;20171;-82
2023/05/01 00:32:26;;;;;;;0.20;0.20;;;7.60;99.90;;;;;;5040885;28;20194;-82
2023/05/01 00:34:52;;;;;;;0.20;0.20;;;7.70;99.90;;;;;;5047733;28;20271;-82
2023/05/01 00:37:17;;;;;;;0.20;0.20;;;7.60;99.90;;;;;;5044762;28;20815;-81
2023/05/01 00:39:43;;;;;;;0.20;0.20;;;7.30;99.90;;;;;;5053726;28;20218;-82
2023/05/01 00:42:08;;;;;;;0.20;0.20;;;7.50;99.90;;;;;;5048894;28;20292;-82
2023/05/01 00:44:34;;;;;;;0.20;0.20;;;7.50;99.90;;;;;;5049074;28;20198;-82
2023/05/01 00:47:01;;;;;;;0.27;0.27;;;7.60;99.90;;;;;;5047703;28;20199;-81
2023/05/01 00:49:27;;;;;;;0.20;0.20;;;7.50;99.90;;;;;;5047778;28;20932;-81
2023/05/01 00:51:53;;;;;;;0.20;0.20;;;7.40;99.90;;;;;;5036208;28;20954;-81
2023/05/01 00:54:19;;;;;;;0.23;0.23;;;7.40;99.90;;;;;;5047721;28;20436;-82
2023/05/01 00:56:49;;;;;;;0.20;0.20;;;7.50;99.90;;;;;;5051267;28;20189;-82
2023/05/01 00:59:15;;;;;;;0.20;0.20;;;7.40;99.90;;;;;;5052889;28;20440;-82
2023/05/01 01:01:41;;;;;;;0.20;0.20;;;7.40;99.90;;;;;;5039104;28;20485;-82
2023/05/01 01:04:07;;;;;;;0.20;0.20;;;7.40;99.90;;;;;;5037547;28;20187;-82
2023/05/01 01:06:38;;;;;;;0.20;0.20;;;7.30;99.90;;;;;;5041087;28;20449;-82
2023/05/01 01:09:26;;;;;;;0.30;0.30;;;7.20;99.90;;;;;;5039671;28;20193;-82
2023/05/01 01:12:18;;;;;;;0.30;0.30;;;7.30;99.90;;;;;;5051155;28;20441;-82
2023/05/01 01:14:54;;;;;;;0.30;0.30;;;7.20;99.90;;;;;;5051337;28;20418;-82
2023/05/01 01:17:50;;;;;;;0.27;0.27;;;7.30;99.90;;;;;;5044577;28;20594;-82
2023/05/01 01:20:38;;;;;;;0.20;0.20;;;7.20;99.90;;;;;;5042910;28;20483;-82
2023/05/01 01:23:33;;;;;;;0.20;0.20;;;7.20;99.90;;;;;;5035925;28;20442;-82
2023/05/01 01:26:14;;;;;;;0.10;0.10;;;7.20;99.90;;;;;;5050994;28;20437;-82
2023/05/01 01:29:07;;;;;;;0.20;0.20;;;7.30;99.90;;;;;;5048527;28;20465;-82
2023/05/01 01:31:52;;;;;;;0.17;0.17;;;7.10;99.90;;;;;;5049988;28;20445;-82
2023/05/01 01:34:22;;;;;;;0.17;0.17;;;7.10;99.90;;;;;;5047460;28;20433;-82
2023/05/01 01:37:06;;;;;;;0.20;0.20;;;7.00;99.90;;;;;;5035057;28;20521;-82
2023/05/01 01:39:50;;;;;;;0.20;0.20;;;7.10;99.90;;;;;;5042044;28;20448;-82
2023/05/01 01:42:25;;;;;;;0.17;0.17;;;7.10;99.90;;;;;;5038179;28;20481;-81
2023/05/01 01:44:54;;;;;;;0.20;0.20;;;7.00;99.90;;;;;;5042003;28;20441;-81
2023/05/01 01:47:27;;;;;;;0.20;0.20;;;7.00;99.90;;;;;;5033064;28;20509;-80
2023/05/01 01:49:54;;;;;;;0.20;0.20;;;7.00;99.90;;;;;;5044707;28;20442;-81
2023/05/01 01:52:22;;;;;;;0.20;0.20;;;6.90;99.90;;;;;;5036065;28;20489;-81
2023/05/01 01:54:57;;;;;;;0.20;0.20;;;6.90;99.90;;;;;;5040804;28;21018;-81
2023/05/01 01:57:24;;;;;;;0.20;0.20;;;6.90;99.90;;;;;;5045625;28;20949;-80
2023/05/01 01:59:50;;;;;;;0.20;0.20;;;6.90;99.90;;;;;;5037934;28;20478;-81
2023/05/01 02:02:21;;;;;;;0.20;0.20;;;6.80;99.90;;;;;;5060954;28;21088;-80
2023/05/01 02:04:51;;;;;;;0.17;0.17;;;6.80;99.90;;;;;;5043978;28;20784;-81
2023/05/01 02:07:18;;;;;;;0.20;0.20;;;6.60;99.90;;;;;;5038315;28;20811;-81
2023/05/01 02:09:45;;;;;;;0.20;0.20;;;6.70;99.90;;;;;;5035328;28;20531;-81
2023/05/01 02:12:13;;;;;;;0.20;0.20;;;6.60;99.90;;;;;;5036230;28;20448;-81
2023/05/01 02:14:40;;;;;;;0.20;0.20;;;6.60;99.90;;;;;;5048037;28;20777;-81
2023/05/01 02:17:06;;;;;;;0.20;0.20;;;6.50;99.90;;;;;;5037784;28;20984;-81
2023/05/01 02:19:33;;;;;;;0.20;0.20;;;6.50;99.90;;;;;;5043285;28;20448;-80
2023/05/01 02:22:01;;;;;;;0.20;0.20;;;6.60;99.90;;;;;;5039426;28;20739;-80
2023/05/01 02:24:29;;;;;;;0.20;0.20;;;6.50;99.90;;;;;;5047530;28;20544;-81
2023/05/01 02:27:06;;;;;;;0.20;0.20;;;6.50;99.90;;;;;;5042554;28;20541;-80
2023/05/01 02:29:33;;;;;;;0.10;0.10;;;6.50;99.90;;;;;;5030119;28;20446;-81
2023/05/01 02:31:59;;;;;;;0.20;0.20;;;6.20;99.90;;;;;;5035460;28;20598;-80
2023/05/01 02:34:25;;;;;;;0.20;0.20;;;6.30;99.90;;;;;;5041480;28;20484;-81
2023/05/01 02:36:51;;;;;;;0.20;0.20;;;6.50;99.90;;;;;;5038968;28;20956;-81
2023/05/01 02:39:17;;;;;;;0.20;0.20;;;6.40;99.90;;;;;;5052123;28;20175;-81
2023/05/01 02:41:45;;;;;;;0.23;0.23;;;6.30;99.90;;;;;;5039260;28;20225;-81
2023/05/01 02:44:12;;;;;;;0.20;0.20;;;6.40;99.90;;;;;;5047025;28;20519;-81
2023/05/01 02:46:41;;;;;;;0.20;0.20;;;6.30;99.90;;;;;;5049904;28;20968;-81
2023/05/01 02:49:08;;;;;;;0.20;0.20;;;6.40;99.90;;;;;;5036216;28;20434;-80
2023/05/01 02:51:35;;;;;;;0.20;0.20;;;6.30;99.90;;;;;;5036864;28;20934;-82
2023/05/01 02:54:02;;;;;;;0.30;0.30;;;6.30;99.90;;;;;;5034678;28;20441;-80
2023/05/01 02:56:28;;;;;;;0.27;0.27;;;6.30;99.90;;;;;;5036821;28;20499;-80
2023/05/01 02:58:54;;;;;;;0.20;0.20;;;6.30;99.90;;;;;;5034619;28;20442;-81
2023/05/01 03:01:19;;;;;;;0.20;0.20;;;6.30;99.90;;;;;;5046211;28;20848;-81
2023/05/01 03:03:45;;;;;;;0.30;0.30;;;6.30;99.90;;;;;;5070236;28;20257;-80
2023/05/01 03:06:13;;;;;;;0.20;0.20;;;6.20;99.90;;;;;;5044436;28;20190;-81
2023/05/01 03:08:38;;;;;;;0.20;0.20;;;6.20;99.90;;;;;;5039546;28;20257;-80
2023/05/01 03:11:05;;;;;;;0.20;0.20;;;6.10;99.90;;;;;;5046487;28;20878;-81
2023/05/01 03:13:32;;;;;;;0.30;0.30;;;6.10;99.90;;;;;;5054179;28;20524;-81
2023/05/01 03:15:57;;;;;;;0.30;0.30;;;6.10;99.90;;;;;;5037873;28;20587;-81
2023/05/01 03:18:23;;;;;;;0.23;0.23;;;6.10;99.90;;;;;;5049228;28;20512;-81
2023/05/01 03:20:55;;;;;;;0.20;0.20;;;6.10;99.90;;;;;;5039720;28;20259;-81
2023/05/01 03:23:22;;;;;;;0.30;0.30;;;6.10;99.90;;;;;;5043628;28;20273;-81
2023/05/01 03:25:48;;;;;;;0.30;0.30;;;5.90;99.90;;;;;;5046639;28;20536;-80
2023/05/01 03:28:13;;;;;;;0.20;0.20;;;6.00;99.90;;;;;;5031974;28;20544;-81
2023/05/01 03:30:39;;;;;;;0.30;0.30;;;6.00;99.90;;;;;;5042585;28;20460;-81
2023/05/01 03:33:05;;;;;;;0.30;0.30;;;6.10;99.90;;;;;;5041240;28;20657;-80
2023/05/01 03:35:30;;;;;;;0.27;0.27;;;6.00;99.90;;;;;;5049065;28;20190;-81
2023/05/01 03:37:56;;;;;;;0.27;0.27;;;5.90;99.90;;;;;;5045097;28;20435;-80
2023/05/01 03:40:22;;;;;;;0.30;0.30;;;6.00;99.90;;;;;;5050209;28;20214;-81
2023/05/01 03:42:47;;;;;;;0.20;0.20;;;6.00;99.90;;;;;;5030598;28;20564;-81
2023/05/01 03:45:13;;;;;;;0.20;0.20;;;6.00;99.90;;;;;;5038827;28;20449;-80
2023/05/01 03:47:38;;;;;;;0.30;0.30;;;6.00;99.90;;;;;;5046457;28;20940;-81
2023/05/01 03:50:05;;;;;;;0.30;0.30;;;5.90;99.90;;;;;;5031668;28;20188;-80
2023/05/01 03:52:30;;;;;;;0.30;0.30;;;6.00;99.90;;;;;;5039092;28;20195;-81
2023/05/01 03:54:56;;;;;;;0.30;0.30;;;6.00;99.90;;;;;;5031838;28;20806;-81
2023/05/01 03:57:25;;;;;;;0.30;0.30;;;6.00;99.90;;;;;;5049495;28;20933;-80
2023/05/01 03:59:50;;;;;;;0.30;0.30;;;6.00;99.90;;;;;;5033161;28;20230;-80
2023/05/01 04:02:16;;;;;;;0.20;0.20;;;6.10;99.90;;;;;;5046162;28;21234;-80
2023/05/01 04:04:42;;;;;;;0.20;0.20;;;6.00;99.90;;;;;;5039907;28;20180;-81
2023/05/01 04:07:08;;;;;;;0.23;0.23;;;5.80;99.90;;;;;;5041778;28;20180;-81
2023/05/01 04:09:33;;;;;;;0.27;0.27;;;5.90;99.90;;;;;;5038612;28;20444;-81
2023/05/01 04:11:59;;;;;;;0.30;0.30;;;5.90;99.90;;;;;;5044456;28;20487;-81
2023/05/01 04:14:24;;;;;;;0.30;0.30;;;5.90;99.90;;;;;;5051077;28;20241;-81
2023/05/01 04:16:50;;;;;;;0.30;0.30;;;5.90;99.90;;;;;;5051684;28;20191;-82
2023/05/01 04:19:16;;;;;;;0.30;0.30;;;5.90;99.90;;;;;;5047408;28;20184;-84
2023/05/01 04:21:41;;;;;;;0.23;0.23;;;5.90;99.90;;;;;;5035270;28;21057;-81
2023/05/01 04:24:07;;;;;;;0.30;0.30;;;5.90;99.90;;;;;;5051856;28;20178;-81
2023/05/01 04:26:32;;;;;;;0.30;0.30;;;6.00;99.90;;;;;;5047040;28;20190;-81
2023/05/01 04:28:59;;;;;;;0.27;0.27;;;6.10;99.90;;;;;;5042552;28;20274;-81
2023/05/01 04:31:25;;;;;;;0.30;0.30;;;6.10;99.90;;;;;;5037557;28;20187;-81
2023/05/01 04:33:51;;;;;;;0.30;0.30;;;6.10;99.90;;;;;;5033656;28;20422;-81
2023/05/01 04:36:17;;;;;;;0.20;0.20;;;6.20;99.90;;;;;;5044244;28;20205;-81
2023/05/01 04:38:42;;;;;;;0.30;0.30;;;6.20;99.90;;;;;;5048701;28;20533;-81
2023/05/01 04:41:08;;;;;;;0.30;0.30;;;6.20;99.90;;;;;;5045549;28;20210;-81
2023/05/01 04:43:33;;;;;;;0.30;0.30;;;6.30;99.90;;;;;;5045325;28;20176;-81
2023/05/01 04:45:59;;;;;;;0.27;0.27;;;6.30;99.90;;;;;;5051440;28;21055;-81
2023/05/01 04:48:25;;;;;;;0.20;0.20;;;6.30;99.90;;;;;;5041974;28;20178;-82
2023/05/01 04:50:50;;;;;;;0.20;0.20;;;6.40;99.90;;;;;;5036809;28;20647;-81
2023/05/01 04:53:16;;;;;;;0.30;0.30;;;6.40;99.90;;;;;;5048750;28;20800;-81
2023/05/01 04:55:42;;;;;;;0.30;0.30;;;6.40;99.90;;;;;;5051832;28;20788;-81
2023/05/01 04:58:07;;;;;;;0.27;0.27;;;6.50;99.90;;;;;;5041066;28;20191;-81
2023/05/01 05:00:33;;;;;;;0.23;0.23;;;6.60;99.90;;;;;;5035758;28;20220;-81
2023/05/01 05:02:58;;;;;;;0.20;0.20;;;6.60;99.90;;;;;;5033906;28;20248;-81
2023/05/01 05:05:24;;;;;;;0.20;0.20;;;6.60;99.90;;;;;;5039306;28;20276;-81
2023/05/01 05:07:49;;;;;;;0.20;0.20;;;6.60;99.90;;;;;;5041709;28;20182;-81
2023/05/01 05:10:15;;;;;;;0.20;0.20;;;6.60;99.90;;;;;;5037102;28;20268;-81
2023/05/01 05:12:40;;;;;;;0.20;0.20;;;6.80;99.90;;;;;;5033739;28;20558;-81
2023/05/01 05:15:06;;;;;;;0.20;0.20;;;6.80;99.90;;;;;;5038132;28;20281;-81
2023/05/01 05:17:32;;;;;;;0.27;0.27;;;6.80;99.90;;;;;;5045365;28;20704;-81
2023/05/01 05:19:57;;;;;;;0.20;0.20;;;6.80;99.90;;;;;;5040053;28;20461;-80
2023/05/01 05:22:24;;;;;;;0.20;0.20;;;7.00;99.90;;;;;;5047711;28;20222;-81
2023/05/01 05:25:03;;;;;;;0.23;0.23;;;7.10;99.90;;;;;;5037361;28;20594;-81
2023/05/01 05:27:31;;;;;;;0.20;0.20;;;7.10;99.90;;;;;;5036451;28;20456;-82
2023/05/01 05:29:56;;;;;;;0.20;0.20;;;7.30;99.90;;;;;;5042205;28;20514;-80
2023/05/01 05:32:22;;;;;;;0.20;0.20;;;7.40;99.90;;;;;;5042080;28;20459;-80
2023/05/01 05:34:47;;;;;;;0.20;0.20;;;7.50;99.90;;;;;;5039983;28;20541;-81
2023/05/01 05:37:14;;;;;;;0.20;0.20;;;7.70;99.90;;;;;;5036739;28;20194;-83
2023/05/01 05:39:39;;;;;;;0.20;0.20;;;7.80;99.90;;;;;;5044227;28;20233;-82
2023/05/01 05:42:05;;;;;;;0.10;0.10;;;7.90;99.90;;;;;;5033296;28;20580;-81
2023/05/01 05:44:31;;;;;;;0.20;0.20;;;7.90;99.90;;;;;;5036196;28;20198;-82
2023/05/01 05:46:57;;;;;;;0.20;0.20;;;8.10;99.90;;;;;;5032390;28;20265;-81
2023/05/01 05:49:22;;;;;;;0.20;0.20;;;8.10;99.90;;;;;;5046326;28;20929;-82
2023/05/01 05:51:48;;;;;;;0.20;0.20;;;8.20;99.90;;;;;;5040039;28;20213;-79
2023/05/01 05:54:13;;;;;;;0.20;0.20;;;8.30;99.90;;;;;;5040675;28;20195;-81
2023/05/01 05:56:39;;;;;;;0.20;0.20;;;8.40;99.90;;;;;;5039746;28;20322;-82
2023/05/01 05:59:05;;;;;;;0.20;0.20;;;8.40;99.90;;;;;;5032745;28;20675;-81
2023/05/01 06:01:31;;;;;;;0.10;0.10;;;8.50;99.90;;;;;;5036044;28;20241;-81
2023/05/01 06:03:56;;;;;;;0.20;0.20;;;8.60;99.90;;;;;;5050997;28;21142;-81
2023/05/01 06:06:22;;;;;;;0.20;0.20;;;8.70;99.90;;;;;;5037878;28;20455;-81
2023/05/01 06:08:48;;;;;;;0.10;0.10;;;8.70;99.90;;;;;;5033828;28;20199;-80
2023/05/01 06:11:13;;;;;;;0.20;0.20;;;8.80;99.90;;;;;;5044303;28;20599;-80
2023/05/01 06:13:39;;;;;;;0.20;0.20;;;8.80;99.90;;;;;;5036646;28;20662;-81
2023/05/01 06:16:06;;;;;;;0.10;0.10;;;8.90;99.90;;;;;;5033492;28;20240;-80
2023/05/01 06:18:32;;;;;;;0.20;0.20;;;9.00;99.90;;;;;;5033569;28;20893;-81
2023/05/01 06:20:58;;;;;;;0.20;0.20;;;9.10;99.90;;;;;;5031342;28;20485;-80
2023/05/01 06:23:24;;;;;;;0.17;0.17;;;9.10;99.90;;;;;;5033084;28;20438;-80
2023/05/01 06:25:50;;;;;;;0.20;0.20;;;9.30;99.90;;;;;;5027467;28;20446;-81
2023/05/01 06:28:15;;;;;;;0.10;0.10;;;9.30;99.90;;;;;;5035570;28;20450;-81
2023/05/01 06:30:41;;;;;;;0.20;0.20;;;9.30;99.90;;;;;;5042134;28;20656;-80
2023/05/01 06:33:08;;;;;;;0.20;0.20;;;9.40;99.90;;;;;;5047059;28;20191;-82
2023/05/01 06:35:34;;;;;;;0.17;0.17;;;9.50;99.90;;;;;;5035049;28;20175;-82
2023/05/01 06:37:59;;;;;;;0.20;0.20;;;9.50;99.90;;;;;;5035285;28;20908;-81
2023/05/01 06:40:25;;;;;;;0.10;0.10;;;9.60;99.90;;;;;;5050977;28;20210;-81
2023/05/01 06:42:50;;;;;;;0.13;0.13;;;9.60;99.90;;;;;;5049984;28;20222;-82
2023/05/01 06:45:16;;;;;;;0.20;0.20;;;9.70;99.90;;;;;;5043093;28;20974;-81
2023/05/01 06:47:41;;;;;;;0.10;0.10;;;9.80;99.90;;;;;;5033131;28;20210;-81
2023/05/01 06:50:07;;;;;;;0.10;0.10;;;9.90;99.90;;;;;;5043351;28;20182;-80
2023/05/01 06:52:33;;;;;;;0.10;0.10;;;9.90;99.90;;;;;;5038070;28;20185;-80
2023/05/01 06:54:59;;;;;;;0.20;0.20;;;10.10;99.90;;;;;;5041047;28;21290;-80
2023/05/01 06:57:24;;;;;;;0.13;0.13;;;10.20;99.90;;;;;;5038571;28;20183;-79
2023/05/01 06:59:50;;;;;;;0.10;0.10;;;10.20;99.90;;;;;;5048906;28;20178;-79
2023/05/01 07:02:15;;;;;;;0.10;0.10;;;10.30;99.90;;;;;;5031667;28;20302;-80
2023/05/01 07:04:43;;;;;;;0.10;0.10;;;10.40;99.90;;;;;;5031891;28;20200;-81
2023/05/01 07:07:08;;;;;;;0.10;0.10;;;10.30;99.90;;;;;;5043016;28;20593;-80
2023/05/01 07:09:34;;;;;;;0.10;0.10;;;10.50;99.90;;;;;;5039783;28;20529;-81
2023/05/01 07:12:02;;;;;;;0.10;0.10;;;10.60;99.90;;;;;;5031749;28;20195;-78
2023/05/01 07:14:27;;;;;;;0.10;0.10;;;10.60;99.90;;;;;;5047874;28;20448;-79
2023/05/01 07:16:54;;;;;;;0.10;0.10;;;10.60;99.90;;;;;;5033962;28;20449;-78
2023/05/01 07:19:19;;;;;;;0.10;0.10;;;10.60;99.90;;;;;;5034043;28;20270;-79
2023/05/01 07:21:45;;;;;;;0.10;0.10;;;10.80;99.90;;;;;;5032198;28;20576;-79
2023/05/01 07:24:11;;;;;;;0.10;0.10;;;10.90;99.90;;;;;;5039560;28;20191;-79
2023/05/01 07:26:37;;;;;;;0.10;0.10;;;10.90;99.90;;;;;;5040370;28;20218;-78
2023/05/01 07:29:03;;;;;;;0.10;0.10;;;11.00;99.90;;;;;;5047220;28;20518;-80
2023/05/01 07:31:28;;;;;;;0.10;0.10;;;10.90;99.90;;;;;;5038420;28;20471;-76
2023/05/01 07:33:55;;;;;;;0.10;0.10;;;11.00;99.90;;;;;;5065349;28;20206;-79
2023/05/01 07:36:21;;;;;;;0.10;0.10;;;11.00;99.90;;;;;;5049881;28;20191;-77
2023/05/01 07:38:47;;;;;;;0.10;0.10;;;11.20;99.90;;;;;;5034742;28;20441;-79
2023/05/01 07:41:13;;;;;;;0.07;0.07;;;11.30;99.90;;;;;;5049120;28;20262;-79
2023/05/01 07:43:38;;;;;;;0.10;0.10;;;11.20;99.90;;;;;;5051424;28;20825;-79
2023/05/01 07:46:04;;;;;;;0.10;0.10;;;11.50;99.90;;;;;;5049792;28;20197;-77
2023/05/01 07:48:31;;;;;;;0.10;0.10;;;11.80;99.90;;;;;;5037609;28;20183;-79
2023/05/01 07:51:00;;;;;;;0.07;0.07;;;12.10;99.90;;;;;;5034097;28;20450;-79
2023/05/01 07:53:26;;;;;;;0.10;0.10;;;12.30;99.90;;;;;;5036383;28;20948;-79
2023/05/01 07:55:52;;;;;;;0.10;0.10;;;12.60;99.90;;;;;;5042150;28;20494;-77
2023/05/01 07:58:18;;;;;;;0.10;0.10;;;12.40;99.90;;;;;;5036199;28;20205;-77
2023/05/01 08:00:46;;;;;;;0.10;0.10;;;12.40;99.90;;;;;;5040343;28;20298;-78
2023/05/01 08:03:12;;;;;;;0.10;0.10;;;12.50;99.90;;;;;;5040639;28;20953;-78
2023/05/01 08:05:41;;;;;;;0.10;0.10;;;12.70;99.90;;;;;;5043190;28;20453;-78
2023/05/01 08:08:06;;;;;;;0.00;0.00;;;12.40;99.90;;;;;;5044680;28;20205;-78
2023/05/01 08:10:32;;;;;;;0.10;0.10;;;12.70;99.90;;;;;;5049793;28;20527;-79
2023/05/01 08:12:58;;;;;;;0.10;0.10;;;12.90;99.90;;;;;;5040122;28;20182;-77
2023/05/01 08:15:23;;;;;;;0.10;0.10;;;13.00;99.90;;;;;;5056935;28;20190;-78
2023/05/01 08:17:50;;;;;;;0.10;0.10;;;12.90;99.90;;;;;;5043703;28;20507;-78
2023/05/01 08:20:15;;;;;;;0.10;0.10;;;13.30;99.90;;;;;;5051075;28;20224;-79
2023/05/01 08:22:41;;;;;;;0.10;0.10;;;13.50;99.90;;;;;;5033856;28;20934;-79
2023/05/01 08:25:07;;;;;;;0.10;0.10;;;13.50;99.90;;;;;;5036759;28;20259;-80
2023/05/01 08:27:32;;;;;;;0.10;0.10;;;13.60;99.90;;;;;;5042217;28;22022;-79
2023/05/01 08:29:58;;;;;;;0.07;0.07;;;13.70;99.90;;;;;;5044728;28;20195;-79
2023/05/01 08:32:23;;;;;;;0.10;0.10;;;14.20;99.90;;;;;;5039050;28;20187;-80
2023/05/01 08:34:49;;;;;;;0.03;0.03;;;14.40;99.90;;;;;;5037595;28;20243;-79
2023/05/01 08:37:15;;;;;;;0.00;0.00;;;14.30;99.90;;;;;;5041392;28;20187;-78
2023/05/01 08:39:40;;;;;;;0.00;0.00;;;14.40;99.90;;;;;;5045334;28;20952;-79
2023/05/01 08:42:06;;;;;;;0.10;0.10;;;14.20;99.90;;;;;;5050853;28;20355;-76
2023/05/01 08:44:36;;;;;;;0.03;0.03;;;14.30;99.90;;;;;;5048284;28;20250;-77
2023/05/01 08:47:15;;;;;;;0.00;0.00;;;14.70;99.90;;;;;;5039226;28;20446;-78
2023/05/01 08:49:42;;;;;;;0.00;0.00;;;14.70;99.90;;;;;;5033264;28;20806;-79
2023/05/01 08:52:09;;;;;;;0.03;0.03;;;14.60;99.90;;;;;;5039360;28;20450;-79
2023/05/01 08:54:37;;;;;;;0.00;0.00;;;14.40;99.90;;;;;;5044465;28;20469;-78
2023/05/01 08:57:05;;;;;;;0.10;0.10;;;14.50;99.90;;;;;;5044573;28;20532;-78
2023/05/01 08:59:33;;;;;;;0.00;0.00;;;14.70;99.90;;;;;;5039977;28;20441;-78
2023/05/01 09:02:03;;;;;;;0.00;0.00;;;14.90;99.90;;;;;;5035865;28;20626;-78
2023/05/01 09:04:31;;;;;;;0.00;0.00;;;14.90;99.90;;;;;;5056857;28;20437;-78
2023/05/01 09:06:59;;;;;;;0.00;0.00;;;15.20;99.90;;;;;;5042956;28;20459;-78
2023/05/01 09:09:25;;;;;;;0.03;0.03;;;14.90;99.90;;;;;;5042932;28;20490;-79
2023/05/01 09:11:56;;;;;;;0.00;0.00;;;15.10;99.90;;;;;;5037920;28;20715;-78
2023/05/01 09:14:22;;;;;;;0.00;0.00;;;15.20;99.90;;;;;;5034861;28;20507;-78
2023/05/01 09:16:48;;;;;;;0.07;0.07;;;15.30;99.90;;;;;;5030907;28;20488;-78
2023/05/01 09:19:13;;;;;;;0.00;0.00;;;15.30;99.90;;;;;;5036865;28;20199;-78
2023/05/01 09:21:39;;;;;;;0.00;0.00;;;15.50;99.90;;;;;;5033713;28;20504;-78
2023/05/01 09:24:05;;;;;;;0.00;0.00;;;15.20;99.90;;;;;;5048937;28;20190;-78
2023/05/01 09:26:33;;;;;;;0.00;0.00;;;15.00;99.60;;;;;;5045368;28;20603;-78
2023/05/01 09:28:59;;;;;;;0.00;0.00;;;15.10;99.90;;;;;;5040447;28;20252;-79
2023/05/01 09:31:31;;;;;;;0.00;0.00;;;14.80;99.90;;;;;;5048528;28;20449;-78
2023/05/01 09:34:04;;;;;;;0.00;0.00;;;15.00;99.90;;;;;;5043908;28;20441;-78
2023/05/01 09:36:31;;;;;;;0.00;0.00;;;15.30;99.70;;;;;;5042123;28;20879;-79
2023/05/01 09:38:59;;;;;;;0.00;0.00;;;15.40;99.80;;;;;;5044712;28;20536;-78
2023/05/01 09:41:25;;;;;;;0.00;0.00;;;15.50;99.60;;;;;;5043936;28;20481;-78
2023/05/01 09:44:00;;;;;;;0.00;0.00;;;16.00;99.90;;;;;;5037686;28;20449;-78
2023/05/01 09:46:26;;;;;;;0.00;0.00;;;16.50;98.80;;;;;;5038386;28;20433;-78
2023/05/01 09:48:59;;;;;;;0.00;0.00;;;16.50;98.50;;;;;;5049143;28;20453;-79
2023/05/01 09:51:33;;;;;;;0.00;0.00;;;16.70;99.90;;;;;;5048073;28;20499;-78
2023/05/01 09:54:00;;;;;;;0.00;0.00;;;17.00;97.80;;;;;;5049892;28;20826;-80
2023/05/01 09:56:28;;;;;;;0.00;0.00;;;16.80;98.00;;;;;;5044096;28;20455;-79
2023/05/01 09:58:55;;;;;;;0.00;0.00;;;16.20;98.10;;;;;;5049515;28;20495;-79
2023/05/01 10:01:39;;;;;;;0.00;0.00;;;16.60;98.00;;;;;;5041002;28;20523;-79
2023/05/01 10:04:06;;;;;;;0.00;0.00;;;16.40;97.40;;;;;;5047343;28;21262;-80
2023/05/01 10:06:31;;;;;;;0.00;0.00;;;17.00;98.50;;;;;;5046048;28;20514;-80
2023/05/01 10:08:57;;;;;;;0.00;0.00;;;17.10;96.00;;;;;;5039673;28;21020;-81
2023/05/01 10:11:23;;;;;;;0.00;0.00;;;17.00;96.50;;;;;;5047225;28;20244;-77
2023/05/01 10:14:08;;;;;;;0.00;0.00;;;16.60;96.70;;;;;;5047222;28;20278;-80
2023/05/01 10:16:38;;;;;;;0.00;0.00;;;17.00;97.00;;;;;;5042727;28;20199;-80
2023/05/01 10:19:04;;;;;;;0.00;0.00;;;17.40;97.20;;;;;;5032793;28;20969;-80
2023/05/01 10:21:34;;;;;;;0.00;0.00;;;17.90;94.70;;;;;;5040817;28;20534;-80
2023/05/01 10:24:02;;;;;;;0.00;0.00;;;18.30;92.60;;;;;;5047890;28;20472;-81
2023/05/01 10:26:28;;;;;;;0.00;0.00;;;18.50;90.50;;;;;;5046910;28;20451;-81
2023/05/01 10:28:58;;;;;;;0.00;0.00;;;19.00;89.20;;;;;;5042323;28;20429;-82
2023/05/01 10:31:26;;;;;;;0.00;0.00;;;;;;;;;;5037241;28;20477;-81
2023/05/01 10:33:53;;;;;;;0.00;0.00;;;19.50;85.30;;;;;;5033606;28;21039;-81
2023/05/01 10:36:38;;;;;;;0.00;0.00;;;19.30;84.00;;;;;;5040015;28;20438;-81
2023/05/01 10:39:04;;;;;;;0.00;0.00;;;19.00;85.10;;;;;;5039124;28;20441;-81
2023/05/01 10:41:58;;;;;;;0.00;0.00;;;18.70;86.30;;;;;;5033891;28;21337;-80
2023/05/01 10:44:25;;;;;;;0.00;0.00;;;19.10;87.30;;;;;;5029073;28;20192;-81
2023/05/01 10:46:51;;;;;;;0.00;0.00;;;19.60;83.10;;;;;;5042841;28;20467;-81
2023/05/01 10:49:17;;;;;;;0.00;0.00;;;19.50;81.30;;;;;;5049658;28;20436;-80
2023/05/01 10:52:01;;;;;;;0.00;0.00;;;19.70;74.80;;;;;;5046151;28;20441;-80
2023/05/01 10:54:31;;;;;;;0.00;0.00;;;19.90;68.70;;;;;;5039415;28;20440;-80
2023/05/01 10:56:58;;;;;;;0.00;0.00;;;20.20;70.70;;;;;;5029904;28;20434;-80
2023/05/01 10:59:24;;;;;;;0.00;0.00;;;20.60;75.50;;;;;;5037209;28;20440;-81
2023/05/01 11:01:51;;;;;;;0.00;0.00;;;;;;;;;;5047002;28;20492;-81
2023/05/01 11:04:26;;;;;;;0.00;0.00;;;;;;;;;;5037582;28;21171;-81
2023/05/01 11:06:57;;;;;;;0.00;0.00;;;;;;;;;;5043339;28;20448;-81
2023/05/01 11:09:43;;;;;;;0.00;0.00;;;;;;;;;;5039785;28;20477;-81
2023/05/01 11:12:10;;;;;;;0.00;0.00;;;;;;;;;;5029074;28;21052;-81
2023/05/01 11:14:56;;;;;;;0.00;0.00;;;;;;;;;;5042228;28;20547;-81
2023/05/01 11:17:42;;;;;;;0.00;0.00;;;;;;;;;;5031526;28;20441;-82
2023/05/01 11:20:31;;;;;;;0.00;0.00;;;;;;;;;;5036474;28;20529;-81
2023/05/01 11:22:58;;;;;;;0.00;0.00;;;;;;;;;;5029309;28;20449;-81
2023/05/01 11:25:29;;;;;;;0.00;0.00;;;;;;;;;;5047825;28;20439;-82
2023/05/01 11:27:57;;;;;;;0.00;0.00;;;;;;;;;;5042543;28;20460;-81
2023/05/01 11:30:23;;;;;;;0.00;0.00;;;;;;;;;;5034562;28;20436;-81
2023/05/01 11:32:49;;;;;;;0.00;0.00;;;;;;;;;;5041762;28;20496;-82
2023/05/01 11:35:15;;;;;;;0.00;0.00;;;;;;;;;;5037745;28;20436;-82
2023/05/01 11:37:43;;;;;;;0.00;0.00;;;;;;;;;;5049627;28;20479;-81
2023/05/01 11:40:20;;;;;;;0.00;0.00;;;;;;;;;;5048168;28;20246;-82
2023/05/01 11:42:46;;;;;;;0.00;0.00;;;;;;;;;;5047878;28;20491;-82
2023/05/01 11:45:12;;;;;;;0.00;0.00;;;;;;;;;;5042927;28;20446;-81
2023/05/01 11:47:39;;;;;;;0.00;0.00;;;;;;;;;;5043845;28;20799;-82
2023/05/01 11:50:06;;;;;;;0.00;0.00;;;;;;;;;;5039903;28;20438;-82
2023/05/01 11:52:40;;;;;;;0.00;0.00;;;;;;;;;;5048100;28;20528;-82
2023/05/01 11:55:07;;;;;;;0.00;0.00;;;;;;;;;;5056279;28;20427;-82
2023/05/01 11:57:44;;;;;;;0.00;0.00;;;;;;;;;;5038033;28;20853;-82
2023/05/01 12:00:10;;;;;;;0.00;0.00;;;;;;;;;;5031255;28;20477;-80
2023/05/01 12:02:37;;;;;;;0.00;0.00;;;;;;;;;;5040027;28;20458;-83
2023/05/01 12:05:16;;;;;;;0.00;0.00;;;;;;;;;;5048335;28;20443;-81
2023/05/01 12:07:42;;;;;;;0.00;0.00;;;;;;;;;;5047075;28;20444;-80
2023/05/01 12:10:08;;;;;;;0.00;0.00;;;;;;;;;;5046337;28;20929;-81
2023/05/01 12:12:34;;;;;;;0.00;0.00;;;;;;;;;;5039667;28;20444;-82
2023/05/01 12:15:00;;;;;;;0.00;0.00;;;;;;;;;;5039694;28;20812;-81
2023/05/01 12:17:27;;;;;;;0.00;0.00;;;;;;;;;;5044218;28;20446;-81
2023/05/01 12:19:53;;;;;;;0.00;0.00;;;;;;;;;;5039002;28;20814;-82
2023/05/01 12:22:19;;;;;;;0.00;0.00;;;;;;;;;;5037331;28;20871;-82
2023/05/01 12:24:51;;;;;;;0.00;0.00;;;;;;;;;;5041128;28;20437;-81
2023/05/01 12:27:17;;;;;;;0.00;0.00;;;;;;;;;;5048315;28;20448;-82
2023/05/01 12:29:46;;;;;;;0.00;0.00;;;;;;;;;;5041861;28;20453;-82
2023/05/01 12:32:12;;;;;;;0.00;0.00;;;;;;;;;;5033502;28;20453;-82
2023/05/01 12:34:39;;;;;;;0.00;0.00;;;;;;;;;;5047856;28;20504;-81
2023/05/01 12:37:05;;;;;;;0.00;0.00;;;;;;;;;;5039269;28;20459;-81
2023/05/01 12:39:43;;;;;;;0.00;0.00;;;;;;;;;;5044837;28;20421;-82
2023/05/01 12:42:13;;;;;;;0.00;0.00;;;;;;;;;;5052386;28;20492;-81
2023/05/01 12:44:39;;;;;;;0.00;0.00;;;;;;;;;;5049468;28;20429;-80
2023/05/01 12:47:06;;;;;;;0.00;0.00;;;;;;;;;;5037326;28;20452;-84
2023/05/01 12:49:33;;;;;;;0.00;0.00;;;22.30;99.90;;;;;;5040500;28;20445;-82
2023/05/01 12:52:00;;;;;;;0.00;0.00;;;23.20;99.60;;;;;;5038148;28;20430;-82
2023/05/01 12:54:33;;;;;;;0.00;0.00;;;23.60;99.80;;;;;;5052414;28;20464;-86
2023/05/01 12:57:09;;;;;;;0.00;0.00;;;23.60;93.00;;;;;;5052495;28;20516;-83
2023/05/01 12:59:40;;;;;;;0.00;0.00;;;23.60;91.20;;;;;;5041933;28;20456;-83
2023/05/01 13:02:09;;;;;;;0.00;0.00;;;23.60;89.80;;;;;;5037064;28;21251;-85
2023/05/01 13:04:34;;;;;;;0.00;0.00;;;23.50;79.00;;;;;;5038183;28;20531;-84
2023/05/01 13:07:00;;;;;;;0.00;0.00;;;23.20;80.80;;;;;;5032189;28;20492;-84
2023/05/01 13:09:31;;;;;;;0.00;0.00;;;23.00;75.40;;;;;;5035616;28;20183;-85
2023/05/01 13:12:04;;;;;;;0.00;0.00;;;23.30;77.10;;;;;;5047027;28;20210;-85